sensor_id;sensor_type;location;lat;lon;timestamp;pressure;altitude;pressure_sealevel;temperature;humidity
26635;BME280;14490;54.208;37.686;2022-08-07T00:01:48;99445.34;;;21.27;98.67
26635;BME280;14490;54.208;37.686;2022-08-07T00:04:16;99345.72;;;20.64;98.62
26635;BME280;14490;54.208;37.686;2022-08-07T00:06:45;99452.91;;;21.25;98.70
26635;BME280;14490;54.208;37.686;2022-08-07T00:09:13;99344.84;;;20.64;98.57
26635;BME280;14490;54.208;37.686;2022-08-07T00:11:40;99448.50;;;21.24;98.65
26635;BME280;14490;54.208;37.686;2022-08-07T00:14:08;99449.91;;;21.20;98.56
26635;BME280;14490;54.208;37.686;2022-08-07T00:16:35;99448.59;;;21.16;98.76
26635;BME280;14490;54.208;37.686;2022-08-07T00:19:03;99413.09;;;20.87;98.60
26635;BME280;14490;54.208;37.686;2022-08-07T00:21:31;99428.59;;;21.01;98.77
26635;BME280;14490;54.208;37.686;2022-08-07T00:24:00;99448.16;;;21.12;98.60
26635;BME280;14490;54.208;37.686;2022-08-07T00:26:27;99282.13;;;20.05;98.47
26635;BME280;14490;54.208;37.686;2022-08-07T00:28:55;99440.13;;;21.11;98.66
26635;BME280;14490;54.208;37.686;2022-08-07T00:31:23;99449.19;;;21.11;98.70
26635;BME280;14490;54.208;37.686;2022-08-07T00:33:51;99419.75;;;20.99;98.52
26635;BME280;14490;54.208;37.686;2022-08-07T00:36:19;99423.09;;;20.94;98.30
26635;BME280;14490;54.208;37.686;2022-08-07T00:38:47;99439.84;;;21.06;98.29
26635;BME280;14490;54.208;37.686;2022-08-07T00:41:24;99440.22;;;21.03;98.05
26635;BME280;14490;54.208;37.686;2022-08-07T00:43:52;99447.75;;;21.01;98.18
26635;BME280;14490;54.208;37.686;2022-08-07T00:46:20;99417.44;;;20.81;98.04
26635;BME280;14490;54.208;37.686;2022-08-07T00:48:48;99384.88;;;20.50;98.12
26635;BME280;14490;54.208;37.686;2022-08-07T00:51:16;99412.53;;;20.77;98.23
26635;BME280;14490;54.208;37.686;2022-08-07T00:53:44;99416.97;;;20.78;98.11
26635;BME280;14490;54.208;37.686;2022-08-07T00:56:11;99444.50;;;20.91;98.35
26635;BME280;14490;54.208;37.686;2022-08-07T00:58:42;99442.78;;;20.90;98.55
26635;BME280;14490;54.208;37.686;2022-08-07T01:01:10;99436.47;;;20.89;98.46
26635;BME280;14490;54.208;37.686;2022-08-07T01:03:38;99446.56;;;20.89;98.36
26635;BME280;14490;54.208;37.686;2022-08-07T01:06:07;99276.69;;;19.91;98.14
26635;BME280;14490;54.208;37.686;2022-08-07T01:08:35;99393.72;;;20.52;98.46
26635;BME280;14490;54.208;37.686;2022-08-07T01:11:03;99427.44;;;20.74;98.50
26635;BME280;14490;54.208;37.686;2022-08-07T01:13:31;99354.38;;;20.32;98.39
26635;BME280;14490;54.208;37.686;2022-08-07T01:16:01;99179.63;;;19.30;98.26
26635;BME280;14490;54.208;37.686;2022-08-07T01:18:30;99440.19;;;20.82;98.52
26635;BME280;14490;54.208;37.686;2022-08-07T01:21:07;99440.81;;;20.84;98.45
26635;BME280;14490;54.208;37.686;2022-08-07T01:23:38;99439.34;;;20.81;98.27
26635;BME280;14490;54.208;37.686;2022-08-07T01:26:08;99442.25;;;20.80;98.07
26635;BME280;14490;54.208;37.686;2022-08-07T01:28:38;99437.16;;;20.77;97.96
26635;BME280;14490;54.208;37.686;2022-08-07T01:31:06;99445.75;;;20.73;98.03
26635;BME280;14490;54.208;37.686;2022-08-07T01:33:35;99443.41;;;20.70;98.28
26635;BME280;14490;54.208;37.686;2022-08-07T01:36:06;99443.78;;;20.67;98.08
26635;BME280;14490;54.208;37.686;2022-08-07T01:38:35;99272.44;;;19.59;98.16
26635;BME280;14490;54.208;37.686;2022-08-07T01:41:05;99442.47;;;20.63;98.40
26635;BME280;14490;54.208;37.686;2022-08-07T01:43:32;99435.31;;;20.62;98.32
26635;BME280;14490;54.208;37.686;2022-08-07T01:46:01;99434.44;;;20.62;98.21
26635;BME280;14490;54.208;37.686;2022-08-07T01:48:29;99434.66;;;20.60;98.18
26635;BME280;14490;54.208;37.686;2022-08-07T01:51:01;99435.03;;;20.57;98.20
26635;BME280;14490;54.208;37.686;2022-08-07T01:53:33;99430.50;;;20.50;98.30
26635;BME280;14490;54.208;37.686;2022-08-07T01:56:07;99407.63;;;20.36;98.30
26635;BME280;14490;54.208;37.686;2022-08-07T01:58:40;99328.28;;;19.86;97.99
26635;BME280;14490;54.208;37.686;2022-08-07T02:01:14;99259.06;;;19.49;98.01
26635;BME280;14490;54.208;37.686;2022-08-07T02:03:50;99375.00;;;20.20;98.06
26635;BME280;14490;54.208;37.686;2022-08-07T02:06:23;99445.31;;;20.55;97.95
26635;BME280;14490;54.208;37.686;2022-08-07T02:08:54;99436.06;;;20.56;97.68
26635;BME280;14490;54.208;37.686;2022-08-07T02:11:24;99305.56;;;19.85;97.39
26635;BME280;14490;54.208;37.686;2022-08-07T02:13:53;99430.22;;;20.59;97.40
26635;BME280;14490;54.208;37.686;2022-08-07T02:16:24;99317.34;;;19.86;97.01
26635;BME280;14490;54.208;37.686;2022-08-07T02:18:52;99432.75;;;20.61;96.84
26635;BME280;14490;54.208;37.686;2022-08-07T02:21:21;99412.88;;;20.52;96.81
26635;BME280;14490;54.208;37.686;2022-08-07T02:23:50;99429.47;;;20.65;96.29
26635;BME280;14490;54.208;37.686;2022-08-07T02:26:20;99431.16;;;20.66;96.60
26635;BME280;14490;54.208;37.686;2022-08-07T02:28:48;99396.47;;;20.52;96.70
26635;BME280;14490;54.208;37.686;2022-08-07T02:31:17;99422.75;;;20.68;96.63
26635;BME280;14490;54.208;37.686;2022-08-07T02:33:47;99424.47;;;20.69;96.36
26635;BME280;14490;54.208;37.686;2022-08-07T02:36:17;99339.84;;;20.17;96.19
26635;BME280;14490;54.208;37.686;2022-08-07T02:38:46;99369.81;;;20.40;95.93
26635;BME280;14490;54.208;37.686;2022-08-07T02:41:14;99384.25;;;20.48;95.91
26635;BME280;14490;54.208;37.686;2022-08-07T02:43:44;99420.31;;;20.73;95.84
26635;BME280;14490;54.208;37.686;2022-08-07T02:46:14;99386.00;;;20.56;95.56
26635;BME280;14490;54.208;37.686;2022-08-07T02:48:43;99432.25;;;20.87;95.45
26635;BME280;14490;54.208;37.686;2022-08-07T02:51:14;99434.41;;;20.91;95.25
26635;BME280;14490;54.208;37.686;2022-08-07T02:53:45;99424.50;;;20.90;95.11
26635;BME280;14490;54.208;37.686;2022-08-07T02:56:20;99419.19;;;20.89;94.97
26635;BME280;14490;54.208;37.686;2022-08-07T02:58:51;99365.31;;;20.68;94.95
26635;BME280;14490;54.208;37.686;2022-08-07T03:01:20;99446.97;;;21.07;94.83
26635;BME280;14490;54.208;37.686;2022-08-07T03:03:50;99432.94;;;21.10;94.45
26635;BME280;14490;54.208;37.686;2022-08-07T03:06:20;99365.16;;;20.55;93.94
26635;BME280;14490;54.208;37.686;2022-08-07T03:08:50;99270.69;;;20.16;93.84
26635;BME280;14490;54.208;37.686;2022-08-07T03:11:18;99389.78;;;20.91;93.65
26635;BME280;14490;54.208;37.686;2022-08-07T03:13:47;99433.47;;;21.20;93.48
26635;BME280;14490;54.208;37.686;2022-08-07T03:16:16;99433.94;;;21.23;93.24
26635;BME280;14490;54.208;37.686;2022-08-07T03:18:44;99415.75;;;21.16;92.96
26635;BME280;14490;54.208;37.686;2022-08-07T03:21:12;99417.53;;;21.23;92.68
26635;BME280;14490;54.208;37.686;2022-08-07T03:23:41;99432.78;;;21.33;92.63
26635;BME280;14490;54.208;37.686;2022-08-07T03:26:10;99432.47;;;21.42;92.48
26635;BME280;14490;54.208;37.686;2022-08-07T03:28:41;99434.81;;;21.45;92.18
26635;BME280;14490;54.208;37.686;2022-08-07T03:31:09;99282.88;;;20.50;91.68
26635;BME280;14490;54.208;37.686;2022-08-07T03:33:50;99401.16;;;21.30;91.71
26635;BME280;14490;54.208;37.686;2022-08-07T03:36:23;99444.56;;;21.54;91.58
26635;BME280;14490;54.208;37.686;2022-08-07T03:38:53;99441.22;;;21.59;91.28
26635;BME280;14490;54.208;37.686;2022-08-07T03:41:24;99444.25;;;21.64;90.92
26635;BME280;14490;54.208;37.686;2022-08-07T03:43:52;99418.63;;;21.50;90.52
26635;BME280;14490;54.208;37.686;2022-08-07T03:46:21;99410.66;;;21.55;90.15
26635;BME280;14490;54.208;37.686;2022-08-07T03:48:52;99436.97;;;21.77;90.00
26635;BME280;14490;54.208;37.686;2022-08-07T03:51:20;99439.78;;;21.84;89.95
26635;BME280;14490;54.208;37.686;2022-08-07T03:53:49;99357.22;;;21.38;89.37
26635;BME280;14490;54.208;37.686;2022-08-07T03:56:19;99410.03;;;21.81;89.26
26635;BME280;14490;54.208;37.686;2022-08-07T03:58:49;99421.03;;;21.88;88.79
26635;BME280;14490;54.208;37.686;2022-08-07T04:01:17;99438.94;;;22.11;88.47
26635;BME280;14490;54.208;37.686;2022-08-07T04:03:46;99437.28;;;22.17;88.12
26635;BME280;14490;54.208;37.686;2022-08-07T04:06:15;99366.16;;;21.74;87.77
26635;BME280;14490;54.208;37.686;2022-08-07T04:08:44;99440.31;;;22.28;87.88
26635;BME280;14490;54.208;37.686;2022-08-07T04:11:12;99445.66;;;22.37;87.50
26635;BME280;14490;54.208;37.686;2022-08-07T04:13:41;99393.44;;;22.17;87.08
26635;BME280;14490;54.208;37.686;2022-08-07T04:16:09;99397.06;;;22.24;86.84
26635;BME280;14490;54.208;37.686;2022-08-07T04:18:37;99451.91;;;22.58;86.13
26635;BME280;14490;54.208;37.686;2022-08-07T04:21:05;99435.28;;;22.66;86.09
26635;BME280;14490;54.208;37.686;2022-08-07T04:23:34;99413.69;;;22.57;85.61
26635;BME280;14490;54.208;37.686;2022-08-07T04:26:04;99438.50;;;22.76;85.12
26635;BME280;14490;54.208;37.686;2022-08-07T04:28:32;99408.09;;;22.71;85.00
26635;BME280;14490;54.208;37.686;2022-08-07T04:31:00;99411.06;;;22.76;84.52
26635;BME280;14490;54.208;37.686;2022-08-07T04:33:28;99428.25;;;23.05;84.34
26635;BME280;14490;54.208;37.686;2022-08-07T04:35:56;99418.75;;;23.01;83.95
26635;BME280;14490;54.208;37.686;2022-08-07T04:38:25;99431.03;;;23.18;83.48
26635;BME280;14490;54.208;37.686;2022-08-07T04:40:55;99413.28;;;23.14;83.17
26635;BME280;14490;54.208;37.686;2022-08-07T04:43:27;99386.66;;;23.08;82.60
26635;BME280;14490;54.208;37.686;2022-08-07T04:46:05;99426.69;;;23.43;82.18
26635;BME280;14490;54.208;37.686;2022-08-07T04:48:42;99386.28;;;23.24;81.74
26635;BME280;14490;54.208;37.686;2022-08-07T04:51:25;99381.66;;;23.31;81.45
26635;BME280;14490;54.208;37.686;2022-08-07T04:54:01;99426.91;;;23.61;81.23
26635;BME280;14490;54.208;37.686;2022-08-07T04:56:43;99434.34;;;23.74;80.50
26635;BME280;14490;54.208;37.686;2022-08-07T04:59:20;99421.22;;;23.82;80.36
26635;BME280;14490;54.208;37.686;2022-08-07T05:01:59;99436.22;;;23.93;80.19
26635;BME280;14490;54.208;37.686;2022-08-07T05:04:34;99421.00;;;23.90;79.80
26635;BME280;14490;54.208;37.686;2022-08-07T05:07:12;99395.19;;;23.78;79.42
26635;BME280;14490;54.208;37.686;2022-08-07T05:09:50;99353.78;;;23.67;79.31
26635;BME280;14490;54.208;37.686;2022-08-07T05:12:29;99429.22;;;24.17;79.24
26635;BME280;14490;54.208;37.686;2022-08-07T05:15:06;99411.47;;;24.00;79.03
26635;BME280;14490;54.208;37.686;2022-08-07T05:17:45;99435.56;;;24.30;78.83
26635;BME280;14490;54.208;37.686;2022-08-07T05:20:16;99441.91;;;24.37;78.35
26635;BME280;14490;54.208;37.686;2022-08-07T05:22:51;99435.31;;;24.45;78.03
26635;BME280;14490;54.208;37.686;2022-08-07T05:25:21;99445.03;;;24.54;77.67
26635;BME280;14490;54.208;37.686;2022-08-07T05:27:52;99414.56;;;24.49;77.43
26635;BME280;14490;54.208;37.686;2022-08-07T05:30:21;99437.59;;;24.68;77.44
26635;BME280;14490;54.208;37.686;2022-08-07T05:32:51;99427.16;;;24.76;77.27
26635;BME280;14490;54.208;37.686;2022-08-07T05:35:20;99394.19;;;24.63;77.34
26635;BME280;14490;54.208;37.686;2022-08-07T05:37:49;99393.75;;;24.66;77.51
26635;BME280;14490;54.208;37.686;2022-08-07T05:40:18;99421.66;;;24.89;77.52
26635;BME280;14490;54.208;37.686;2022-08-07T05:42:46;99433.00;;;24.99;77.61
26635;BME280;14490;54.208;37.686;2022-08-07T05:45:17;99392.25;;;24.83;76.95
26635;BME280;14490;54.208;37.686;2022-08-07T05:47:46;99408.47;;;24.98;76.63
26635;BME280;14490;54.208;37.686;2022-08-07T05:50:14;99345.91;;;24.67;75.99
26635;BME280;14490;54.208;37.686;2022-08-07T05:52:43;99421.63;;;25.27;75.50
26635;BME280;14490;54.208;37.686;2022-08-07T05:55:11;99385.53;;;25.11;74.92
26635;BME280;14490;54.208;37.686;2022-08-07T05:57:39;99408.66;;;25.34;74.52
26635;BME280;14490;54.208;37.686;2022-08-07T06:00:08;99426.59;;;25.50;74.37
26635;BME280;14490;54.208;37.686;2022-08-07T06:02:39;99419.56;;;25.54;73.16
26635;BME280;14490;54.208;37.686;2022-08-07T06:05:09;99399.22;;;25.55;72.49
26635;BME280;14490;54.208;37.686;2022-08-07T06:07:39;99330.38;;;25.17;72.11
26635;BME280;14490;54.208;37.686;2022-08-07T06:10:09;99206.28;;;24.56;72.30
26635;BME280;14490;54.208;37.686;2022-08-07T06:12:37;99338.66;;;25.42;71.86
26635;BME280;14490;54.208;37.686;2022-08-07T06:15:08;99440.13;;;26.07;71.90
26635;BME280;14490;54.208;37.686;2022-08-07T06:17:41;99385.78;;;25.90;71.13
26635;BME280;14490;54.208;37.686;2022-08-07T06:20:10;99288.59;;;25.45;71.10
26635;BME280;14490;54.208;37.686;2022-08-07T06:22:39;99414.72;;;26.24;70.73
26635;BME280;14490;54.208;37.686;2022-08-07T06:25:09;99372.09;;;26.01;70.53
26635;BME280;14490;54.208;37.686;2022-08-07T06:27:37;99350.88;;;26.02;69.59
26635;BME280;14490;54.208;37.686;2022-08-07T06:30:06;99435.38;;;26.57;69.31
26635;BME280;14490;54.208;37.686;2022-08-07T06:32:35;99439.53;;;26.67;68.78
26635;BME280;14490;54.208;37.686;2022-08-07T06:35:04;99434.31;;;26.77;68.40
26635;BME280;14490;54.208;37.686;2022-08-07T06:37:33;99305.72;;;26.15;68.11
26635;BME280;14490;54.208;37.686;2022-08-07T06:40:01;99421.06;;;26.85;68.43
26635;BME280;14490;54.208;37.686;2022-08-07T06:42:32;99423.19;;;27.01;68.28
26635;BME280;14490;54.208;37.686;2022-08-07T06:45:03;99423.31;;;27.06;67.52
26635;BME280;14490;54.208;37.686;2022-08-07T06:47:34;99423.47;;;27.11;66.49
26635;BME280;14490;54.208;37.686;2022-08-07T06:50:02;99422.78;;;27.16;65.72
26635;BME280;14490;54.208;37.686;2022-08-07T06:52:35;99393.41;;;27.03;64.63
26635;BME280;14490;54.208;37.686;2022-08-07T06:55:08;99390.31;;;27.11;64.07
26635;BME280;14490;54.208;37.686;2022-08-07T06:57:40;99426.09;;;27.36;63.71
26635;BME280;14490;54.208;37.686;2022-08-07T07:00:11;99430.69;;;27.42;63.40
26635;BME280;14490;54.208;37.686;2022-08-07T07:02:41;99406.59;;;27.31;62.16
26635;BME280;14490;54.208;37.686;2022-08-07T07:05:11;99423.53;;;27.53;61.92
26635;BME280;14490;54.208;37.686;2022-08-07T07:07:39;99422.59;;;27.59;61.14
26635;BME280;14490;54.208;37.686;2022-08-07T07:10:07;99414.78;;;27.56;60.99
26635;BME280;14490;54.208;37.686;2022-08-07T07:12:38;99309.78;;;26.96;60.53
26635;BME280;14490;54.208;37.686;2022-08-07T07:15:13;99427.56;;;27.80;60.30
26635;BME280;14490;54.208;37.686;2022-08-07T07:17:52;99319.84;;;27.21;60.27
26635;BME280;14490;54.208;37.686;2022-08-07T07:20:27;99429.25;;;27.93;60.14
26635;BME280;14490;54.208;37.686;2022-08-07T07:22:59;99426.88;;;27.96;59.36
26635;BME280;14490;54.208;37.686;2022-08-07T07:25:28;99426.13;;;28.01;58.60
26635;BME280;14490;54.208;37.686;2022-08-07T07:27:59;99379.94;;;27.78;57.59
26635;BME280;14490;54.208;37.686;2022-08-07T07:30:32;99431.22;;;28.15;57.78
26635;BME280;14490;54.208;37.686;2022-08-07T07:33:04;99351.19;;;27.67;56.68
26635;BME280;14490;54.208;37.686;2022-08-07T07:35:34;99396.84;;;28.11;54.71
26635;BME280;14490;54.208;37.686;2022-08-07T07:38:03;99411.50;;;28.24;54.27
26635;BME280;14490;54.208;37.686;2022-08-07T07:40:34;99281.09;;;27.50;54.49
26635;BME280;14490;54.208;37.686;2022-08-07T07:43:04;99333.28;;;27.93;53.56
26635;BME280;14490;54.208;37.686;2022-08-07T07:45:32;99383.56;;;28.25;53.41
26635;BME280;14490;54.208;37.686;2022-08-07T07:48:00;99280.50;;;27.72;52.44
26635;BME280;14490;54.208;37.686;2022-08-07T07:50:29;99388.25;;;28.36;51.79
26635;BME280;14490;54.208;37.686;2022-08-07T07:53:00;99392.69;;;28.49;52.85
26635;BME280;14490;54.208;37.686;2022-08-07T07:55:29;99334.97;;;28.17;54.25
26635;BME280;14490;54.208;37.686;2022-08-07T07:57:58;99412.78;;;28.67;54.61
26635;BME280;14490;54.208;37.686;2022-08-07T08:00:27;99393.50;;;28.61;52.32
26635;BME280;14490;54.208;37.686;2022-08-07T08:02:58;99407.13;;;28.74;51.43
26635;BME280;14490;54.208;37.686;2022-08-07T08:05:30;99407.72;;;28.76;50.86
26635;BME280;14490;54.208;37.686;2022-08-07T08:07:59;99372.44;;;28.60;50.83
26635;BME280;14490;54.208;37.686;2022-08-07T08:10:28;99265.94;;;27.99;51.76
26635;BME280;14490;54.208;37.686;2022-08-07T08:13:00;99405.41;;;28.85;50.90
26635;BME280;14490;54.208;37.686;2022-08-07T08:15:32;99341.19;;;28.48;49.35
26635;BME280;14490;54.208;37.686;2022-08-07T08:18:02;99413.56;;;28.91;48.31
26635;BME280;14490;54.208;37.686;2022-08-07T08:20:33;99326.84;;;28.51;48.09
26635;BME280;14490;54.208;37.686;2022-08-07T08:23:05;99338.72;;;28.63;48.87
26635;BME280;14490;54.208;37.686;2022-08-07T08:25:52;99390.75;;;29.01;49.41
26635;BME280;14490;54.208;37.686;2022-08-07T08:28:49;99367.66;;;28.95;49.21
26635;BME280;14490;54.208;37.686;2022-08-07T08:31:21;99271.25;;;28.41;48.55
26635;BME280;14490;54.208;37.686;2022-08-07T08:33:52;99402.13;;;29.27;48.10
26635;BME280;14490;54.208;37.686;2022-08-07T08:36:23;99406.19;;;29.37;49.01
26635;BME280;14490;54.208;37.686;2022-08-07T08:38:56;99381.63;;;29.28;48.42
26635;BME280;14490;54.208;37.686;2022-08-07T08:41:42;99394.69;;;29.45;48.08
26635;BME280;14490;54.208;37.686;2022-08-07T08:44:18;99385.75;;;29.43;47.89
26635;BME280;14490;54.208;37.686;2022-08-07T08:46:57;99392.94;;;29.55;46.95
26635;BME280;14490;54.208;37.686;2022-08-07T08:49:38;99381.50;;;29.52;46.45
26635;BME280;14490;54.208;37.686;2022-08-07T08:52:13;99293.47;;;29.14;46.48
26635;BME280;14490;54.208;37.686;2022-08-07T08:54:53;99397.59;;;29.83;45.57
26635;BME280;14490;54.208;37.686;2022-08-07T08:57:27;99390.97;;;29.84;45.76
26635;BME280;14490;54.208;37.686;2022-08-07T09:00:04;99390.88;;;29.79;45.02
26635;BME280;14490;54.208;37.686;2022-08-07T09:02:43;99386.91;;;29.75;43.77
26635;BME280;14490;54.208;37.686;2022-08-07T09:05:22;99389.75;;;29.80;43.69
26635;BME280;14490;54.208;37.686;2022-08-07T09:08:03;99357.41;;;30.02;43.42
26635;BME280;14490;54.208;37.686;2022-08-07T09:10:45;99328.19;;;30.16;42.38
26635;BME280;14490;54.208;37.686;2022-08-07T09:13:23;99335.59;;;30.49;42.77
26635;BME280;14490;54.208;37.686;2022-08-07T09:16:03;99336.94;;;30.68;41.98
26635;BME280;14490;54.208;37.686;2022-08-07T09:18:51;99368.41;;;31.17;42.87
26635;BME280;14490;54.208;37.686;2022-08-07T09:21:33;99293.06;;;30.70;43.75
26635;BME280;14490;54.208;37.686;2022-08-07T09:24:16;99338.13;;;30.94;43.20
26635;BME280;14490;54.208;37.686;2022-08-07T09:27:02;99248.25;;;30.40;42.98
26635;BME280;14490;54.208;37.686;2022-08-07T09:29:51;99270.38;;;30.52;42.99
26635;BME280;14490;54.208;37.686;2022-08-07T09:32:30;99368.22;;;31.02;42.06
26635;BME280;14490;54.208;37.686;2022-08-07T09:35:05;99363.72;;;30.96;41.24
26635;BME280;14490;54.208;37.686;2022-08-07T09:37:40;99368.72;;;30.94;42.91
26635;BME280;14490;54.208;37.686;2022-08-07T09:40:18;99362.19;;;30.88;41.34
26635;BME280;14490;54.208;37.686;2022-08-07T09:42:59;99364.41;;;30.86;39.92
26635;BME280;14490;54.208;37.686;2022-08-07T09:45:39;99337.59;;;30.75;39.13
26635;BME280;14490;54.208;37.686;2022-08-07T09:48:26;99320.28;;;30.68;37.92
26635;BME280;14490;54.208;37.686;2022-08-07T09:51:11;99274.44;;;30.44;37.29
26635;BME280;14490;54.208;37.686;2022-08-07T09:53:48;99351.84;;;31.01;38.45
26635;BME280;14490;54.208;37.686;2022-08-07T09:56:51;99344.81;;;30.98;38.02
26635;BME280;14490;54.208;37.686;2022-08-07T10:02:50;99310.91;;;30.53;37.76
26635;BME280;14490;54.208;37.686;2022-08-07T10:05:46;99296.47;;;30.34;37.51
26635;BME280;14490;54.208;37.686;2022-08-07T10:09:09;99307.25;;;30.47;36.03
26635;BME280;14490;54.208;37.686;2022-08-07T10:11:54;99322.72;;;30.86;38.55
26635;BME280;14490;54.208;37.686;2022-08-07T10:14:48;99330.34;;;30.96;37.30
26635;BME280;14490;54.208;37.686;2022-08-07T10:17:50;99279.28;;;30.80;37.40
26635;BME280;14490;54.208;37.686;2022-08-07T10:20:43;99231.56;;;30.62;36.92
26635;BME280;14490;54.208;37.686;2022-08-07T10:26:40;99324.63;;;31.34;35.49
26635;BME280;14490;54.208;37.686;2022-08-07T10:29:32;99317.09;;;31.30;33.50
26635;BME280;14490;54.208;37.686;2022-08-07T10:32:28;99312.63;;;31.29;33.22
26635;BME280;14490;54.208;37.686;2022-08-07T10:35:22;99223.34;;;30.72;33.39
26635;BME280;14490;54.208;37.686;2022-08-07T10:38:06;99313.22;;;31.31;34.78
26635;BME280;14490;54.208;37.686;2022-08-07T10:40:44;99282.69;;;31.09;33.96
26635;BME280;14490;54.208;37.686;2022-08-07T10:43:18;99308.69;;;31.25;34.16
26635;BME280;14490;54.208;37.686;2022-08-07T10:45:53;99291.91;;;31.15;32.91
26635;BME280;14490;54.208;37.686;2022-08-07T10:48:36;99274.28;;;31.04;33.15
26635;BME280;14490;54.208;37.686;2022-08-07T10:51:10;99303.88;;;31.15;33.69
26635;BME280;14490;54.208;37.686;2022-08-07T10:53:49;99296.59;;;31.09;33.14
26635;BME280;14490;54.208;37.686;2022-08-07T10:56:30;99274.56;;;31.03;33.78
26635;BME280;14490;54.208;37.686;2022-08-07T10:59:09;99293.50;;;31.06;33.54
26635;BME280;14490;54.208;37.686;2022-08-07T11:01:50;99293.88;;;30.93;32.62
26635;BME280;14490;54.208;37.686;2022-08-07T11:04:34;99297.38;;;30.83;32.57
26635;BME280;14490;54.208;37.686;2022-08-07T11:07:20;99270.47;;;30.62;32.80
26635;BME280;14490;54.208;37.686;2022-08-07T11:09:57;99279.66;;;30.89;33.13
26635;BME280;14490;54.208;37.686;2022-08-07T11:12:32;99267.50;;;30.95;33.21
26635;BME280;14490;54.208;37.686;2022-08-07T11:15:06;99270.28;;;30.95;33.37
26635;BME280;14490;54.208;37.686;2022-08-07T11:17:42;99269.44;;;30.95;32.97
26635;BME280;14490;54.208;37.686;2022-08-07T11:20:18;99267.06;;;31.03;34.01
26635;BME280;14490;54.208;37.686;2022-08-07T11:22:58;99209.19;;;30.73;34.11
26635;BME280;14490;54.208;37.686;2022-08-07T11:25:29;99263.75;;;31.06;33.14
26635;BME280;14490;54.208;37.686;2022-08-07T11:28:07;99241.75;;;31.05;33.04
26635;BME280;14490;54.208;37.686;2022-08-07T11:30:46;99241.97;;;30.98;31.17
26635;BME280;14490;54.208;37.686;2022-08-07T11:33:23;99255.50;;;31.16;30.73
26635;BME280;14490;54.208;37.686;2022-08-07T11:36:07;99210.16;;;30.89;33.07
26635;BME280;14490;54.208;37.686;2022-08-07T11:38:46;99244.44;;;31.21;33.35
26635;BME280;14490;54.208;37.686;2022-08-07T11:41:22;99269.53;;;31.31;33.04
26635;BME280;14490;54.208;37.686;2022-08-07T11:43:57;99254.81;;;31.31;33.47
26635;BME280;14490;54.208;37.686;2022-08-07T11:46:48;99232.72;;;31.19;32.11
26635;BME280;14490;54.208;37.686;2022-08-07T11:49:43;99252.31;;;31.34;32.52
26635;BME280;14490;54.208;37.686;2022-08-07T11:52:41;99231.66;;;31.25;33.07
26635;BME280;14490;54.208;37.686;2022-08-07T11:55:25;99254.31;;;31.44;33.25
26635;BME280;14490;54.208;37.686;2022-08-07T11:58:05;99251.34;;;31.51;34.19
26635;BME280;14490;54.208;37.686;2022-08-07T12:00:44;99246.97;;;31.60;35.05
26635;BME280;14490;54.208;37.686;2022-08-07T12:06:47;99247.78;;;32.02;32.24
26635;BME280;14490;54.208;37.686;2022-08-07T12:09:23;99229.41;;;32.01;31.61
26635;BME280;14490;54.208;37.686;2022-08-07T12:11:59;99248.44;;;32.19;31.59
26635;BME280;14490;54.208;37.686;2022-08-07T12:14:37;99250.69;;;32.17;33.22
26635;BME280;14490;54.208;37.686;2022-08-07T12:17:11;99229.72;;;32.05;32.83
26635;BME280;14490;54.208;37.686;2022-08-07T12:19:47;99245.78;;;31.92;31.37
26635;BME280;14490;54.208;37.686;2022-08-07T12:22:22;99247.16;;;31.85;31.94
26635;BME280;14490;54.208;37.686;2022-08-07T12:25:08;99254.31;;;31.76;30.75
26635;BME280;14490;54.208;37.686;2022-08-07T12:27:59;99252.03;;;31.68;31.46
26635;BME280;14490;54.208;37.686;2022-08-07T12:30:32;99244.75;;;31.62;31.39
26635;BME280;14490;54.208;37.686;2022-08-07T12:33:04;99243.66;;;31.63;32.08
26635;BME280;14490;54.208;37.686;2022-08-07T12:35:40;99248.16;;;31.69;31.17
26635;BME280;14490;54.208;37.686;2022-08-07T12:38:09;99246.00;;;31.81;31.10
26635;BME280;14490;54.208;37.686;2022-08-07T12:40:41;99236.03;;;31.95;30.71
26635;BME280;14490;54.208;37.686;2022-08-07T12:43:11;99192.56;;;31.79;30.08
26635;BME280;14490;54.208;37.686;2022-08-07T12:45:46;99233.09;;;32.07;31.05
26635;BME280;14490;54.208;37.686;2022-08-07T12:48:28;99223.06;;;32.11;32.07
26635;BME280;14490;54.208;37.686;2022-08-07T12:51:06;99237.31;;;32.19;32.12
26635;BME280;14490;54.208;37.686;2022-08-07T12:53:42;99134.00;;;31.59;30.92
26635;BME280;14490;54.208;37.686;2022-08-07T12:56:22;99225.91;;;32.16;31.02
26635;BME280;14490;54.208;37.686;2022-08-07T12:58:52;99211.13;;;32.15;31.23
26635;BME280;14490;54.208;37.686;2022-08-07T13:01:34;99223.47;;;32.34;32.52
26635;BME280;14490;54.208;37.686;2022-08-07T13:04:27;99212.88;;;32.31;31.15
26635;BME280;14490;54.208;37.686;2022-08-07T13:10:29;99214.78;;;32.26;30.76
26635;BME280;14490;54.208;37.686;2022-08-07T13:13:28;99230.38;;;32.22;30.25
26635;BME280;14490;54.208;37.686;2022-08-07T13:16:10;99219.44;;;32.05;31.56
26635;BME280;14490;54.208;37.686;2022-08-07T13:18:50;99183.34;;;31.73;31.68
26635;BME280;14490;54.208;37.686;2022-08-07T13:21:25;99226.59;;;32.01;31.03
26635;BME280;14490;54.208;37.686;2022-08-07T13:24:00;99219.34;;;31.95;31.52
26635;BME280;14490;54.208;37.686;2022-08-07T13:26:34;99118.22;;;31.27;31.71
26635;BME280;14490;54.208;37.686;2022-08-07T13:29:13;99220.94;;;31.76;32.36
26635;BME280;14490;54.208;37.686;2022-08-07T13:31:48;99180.19;;;31.55;31.75
26635;BME280;14490;54.208;37.686;2022-08-07T13:34:24;99188.53;;;31.60;31.48
26635;BME280;14490;54.208;37.686;2022-08-07T13:37:04;99181.28;;;31.59;32.04
26635;BME280;14490;54.208;37.686;2022-08-07T13:39:44;99199.59;;;31.50;31.60